Rossmoor, California
Current Conditions -  °F | °C
As of 12:58 AM on Sunday 26 Oct 2014 (Local Time) from KSLI Reporting Station
Clear Clear  
Wind Chill: 64°   Ceiling: Unl
Heat Index: 64°   Visibility: 10mi
Dew Point: 62°   Wind: 3mph
Humidity: 92%   Direction: 130°SE
Pressure: 30"   Gusts: NA
Location:  33.7944°N, 118.065°W
Report Text: KSLI 260758Z AUTO 13003KT 10SM CLR 18/16 A3000 RMK AO2 SLP162 T01770164 402770144
Loading
Personal Weather Stations






























Interactive Weather Map
Tropical Storm Tracking
New forecast layout! Learn more

10-Day Weather Forecast

Advertisements
Track Severe Weather on mobile